createdAt,value
2022-07-29T00:02:02.980Z,13.17
2022-07-29T00:04:31.783Z,13.50
2022-07-29T00:07:00.508Z,13.27
2022-07-29T00:09:29.253Z,14.13
2022-07-29T00:12:01.221Z,14.53
2022-07-29T00:14:30.432Z,13.97
2022-07-29T00:16:59.121Z,14.67
2022-07-29T00:19:29.116Z,13.33
2022-07-29T00:21:57.726Z,13.07
2022-07-29T00:24:26.667Z,13.53
2022-07-29T00:26:57.332Z,12.90
2022-07-29T00:29:34.635Z,13.70
2022-07-29T00:32:04.088Z,14.07
2022-07-29T00:34:51.678Z,13.17
2022-07-29T00:37:20.426Z,12.90
2022-07-29T00:39:49.212Z,13.27
2022-07-29T00:42:18.389Z,14.43
2022-07-29T00:44:47.117Z,14.23
2022-07-29T00:47:15.738Z,13.47
2022-07-29T00:49:45.976Z,13.67
2022-07-29T00:52:16.833Z,13.77
2022-07-29T00:54:46.019Z,15.10
2022-07-29T00:57:15.005Z,13.37
2022-07-29T00:59:43.668Z,15.93
2022-07-29T01:02:12.474Z,13.37
2022-07-29T01:04:42.122Z,14.47
2022-07-29T01:07:12.922Z,14.73
2022-07-29T01:09:46.669Z,13.47
2022-07-29T01:12:19.681Z,14.13
2022-07-29T01:14:49.721Z,13.97
2022-07-29T01:17:23.059Z,12.23
2022-07-29T01:20:03.751Z,15.23
2022-07-29T01:22:48.623Z,13.97
2022-07-29T01:25:42.275Z,13.13
2022-07-29T01:28:40.421Z,13.00
2022-07-29T01:31:21.176Z,15.00
2022-07-29T01:34:00.235Z,11.93
2022-07-29T01:36:33.246Z,12.93
2022-07-29T01:39:10.770Z,13.77
2022-07-29T01:41:46.110Z,13.27
2022-07-29T01:44:21.937Z,12.70
2022-07-29T01:46:54.760Z,12.67
2022-07-29T01:49:27.461Z,12.43
2022-07-29T01:52:01.814Z,13.27
2022-07-29T01:54:36.752Z,12.37
2022-07-29T01:57:09.241Z,13.60
2022-07-29T01:59:40.639Z,14.17
2022-07-29T02:02:11.960Z,13.73
2022-07-29T02:04:43.164Z,13.60
2022-07-29T02:07:17.795Z,14.50
2022-07-29T02:09:48.509Z,15.90
2022-07-29T02:12:20.080Z,12.23
2022-07-29T02:14:55.982Z,12.70
2022-07-29T02:17:28.243Z,12.13
2022-07-29T02:20:01.942Z,14.23
2022-07-29T02:22:33.262Z,13.33
2022-07-29T02:25:03.738Z,14.13
2022-07-29T02:27:35.621Z,12.83
2022-07-29T02:30:08.126Z,13.50
2022-07-29T02:32:38.481Z,13.43
2022-07-29T02:35:10.181Z,14.90
2022-07-29T02:37:40.258Z,12.43
2022-07-29T02:40:13.183Z,14.50
2022-07-29T02:42:45.878Z,13.47
2022-07-29T02:45:15.930Z,14.83
2022-07-29T02:47:49.819Z,14.17
2022-07-29T02:50:23.308Z,13.67
2022-07-29T02:52:56.850Z,14.10
2022-07-29T02:55:30.728Z,14.40
2022-07-29T02:58:02.876Z,14.27
2022-07-29T03:00:37.228Z,14.10
2022-07-29T03:03:09.662Z,13.87
2022-07-29T03:05:39.101Z,16.50
2022-07-29T03:08:11.342Z,14.53
2022-07-29T03:10:41.641Z,13.23
2022-07-29T03:13:11.530Z,14.57
2022-07-29T03:15:42.052Z,13.33
2022-07-29T03:18:11.379Z,12.60
2022-07-29T03:20:41.502Z,13.97
2022-07-29T03:23:10.978Z,14.43
2022-07-29T03:25:39.845Z,14.43
2022-07-29T03:28:08.442Z,14.53
2022-07-29T03:30:37.110Z,14.07
2022-07-29T03:33:13.396Z,13.00
2022-07-29T03:35:42.586Z,13.37
2022-07-29T03:38:11.156Z,14.33
2022-07-29T03:40:46.944Z,13.73
2022-07-29T03:43:17.647Z,14.40
2022-07-29T03:45:52.134Z,16.53
2022-07-29T03:48:24.284Z,13.77
2022-07-29T03:50:53.557Z,13.97
2022-07-29T03:53:22.249Z,14.53
2022-07-29T03:55:55.141Z,13.60
2022-07-29T03:58:25.395Z,12.27
2022-07-29T04:00:56.094Z,13.83
2022-07-29T04:03:26.183Z,13.23
2022-07-29T04:06:02.703Z,14.07
2022-07-29T04:08:31.488Z,13.40
2022-07-29T04:11:00.059Z,15.23
2022-07-29T04:13:28.671Z,13.00
2022-07-29T04:15:57.662Z,13.87
2022-07-29T04:18:27.787Z,13.30
2022-07-29T04:20:56.795Z,12.80
2022-07-29T04:23:25.636Z,13.50
2022-07-29T04:25:54.518Z,14.30
2022-07-29T04:28:23.145Z,14.03
2022-07-29T04:30:51.817Z,15.13
2022-07-29T04:33:20.414Z,14.50
2022-07-29T04:35:52.524Z,14.97
2022-07-29T04:38:23.901Z,13.80
2022-07-29T04:40:52.530Z,13.50
2022-07-29T04:43:23.201Z,13.00
2022-07-29T04:45:52.404Z,14.17
2022-07-29T04:48:25.330Z,13.83
2022-07-29T04:50:58.910Z,16.77
2022-07-29T04:53:27.802Z,12.60
2022-07-29T04:55:56.833Z,14.50
2022-07-29T04:58:25.844Z,13.27
2022-07-29T05:00:54.560Z,14.20
2022-07-29T05:03:23.211Z,13.13
2022-07-29T05:05:51.760Z,14.47
2022-07-29T05:08:21.877Z,13.83
2022-07-29T05:10:50.492Z,14.03
2022-07-29T05:13:19.043Z,13.13
2022-07-29T05:15:47.781Z,15.23
2022-07-29T05:18:16.442Z,14.90
2022-07-29T05:20:45.039Z,13.97
2022-07-29T05:23:15.587Z,15.27
2022-07-29T05:25:45.850Z,14.37
2022-07-29T05:28:14.842Z,14.57
2022-07-29T05:30:45.458Z,13.00
2022-07-29T05:33:36.228Z,13.53
2022-07-29T05:36:02.691Z,13.83
2022-07-29T05:38:31.564Z,13.80
2022-07-29T05:41:10.223Z,15.07
2022-07-29T05:43:39.003Z,15.77
2022-07-29T05:46:07.575Z,15.97
2022-07-29T05:48:36.699Z,14.60
2022-07-29T05:51:05.975Z,14.43
2022-07-29T05:53:34.573Z,13.57
2022-07-29T05:56:06.842Z,13.60
2022-07-29T05:58:37.193Z,14.67
2022-07-29T06:01:05.831Z,14.53
2022-07-29T06:03:35.663Z,14.00
2022-07-29T06:06:04.199Z,14.03
2022-07-29T06:08:34.653Z,13.47
2022-07-29T06:11:03.466Z,17.23
2022-07-29T06:13:32.581Z,14.23
2022-07-29T06:16:02.665Z,14.13
2022-07-29T06:18:31.557Z,13.93
2022-07-29T06:21:00.570Z,14.63
2022-07-29T06:23:29.524Z,14.53
2022-07-29T06:25:58.171Z,15.63
2022-07-29T06:28:27.188Z,16.10
2022-07-29T06:30:56.034Z,14.07
2022-07-29T06:33:26.030Z,15.03
2022-07-29T06:35:55.092Z,14.40
2022-07-29T06:38:33.779Z,13.87
2022-07-29T06:41:04.832Z,16.07
2022-07-29T06:43:52.166Z,15.20
2022-07-29T06:46:24.397Z,15.67
2022-07-29T06:48:54.635Z,14.73
2022-07-29T06:51:24.315Z,15.33
2022-07-29T06:54:00.514Z,15.67
2022-07-29T06:56:32.544Z,15.40
2022-07-29T06:59:09.096Z,16.23
2022-07-29T07:01:39.227Z,16.07
2022-07-29T07:04:10.318Z,15.73
2022-07-29T07:06:39.125Z,15.10
2022-07-29T07:09:07.764Z,15.20
2022-07-29T07:11:36.667Z,16.37
2022-07-29T07:14:05.681Z,16.60
2022-07-29T07:16:34.664Z,15.03
2022-07-29T07:19:03.712Z,17.97
2022-07-29T07:21:35.060Z,15.87
2022-07-29T07:24:04.894Z,17.43
2022-07-29T07:26:33.457Z,15.37
2022-07-29T07:29:02.424Z,16.00
2022-07-29T07:31:31.171Z,16.40
2022-07-29T07:34:00.057Z,17.67
2022-07-29T07:36:28.664Z,15.03
2022-07-29T07:38:58.831Z,17.07
2022-07-29T07:41:27.600Z,14.57
2022-07-29T07:44:01.256Z,17.23
2022-07-29T07:46:29.908Z,15.73
2022-07-29T07:48:58.495Z,15.70
2022-07-29T07:51:27.971Z,14.73
2022-07-29T07:53:57.931Z,17.30
2022-07-29T07:56:26.501Z,15.30
2022-07-29T07:58:55.693Z,17.07
2022-07-29T08:01:24.344Z,16.23
2022-07-29T08:03:53.011Z,16.53
2022-07-29T08:06:21.638Z,16.70
2022-07-29T08:08:51.893Z,16.00
2022-07-29T08:11:22.642Z,16.00
2022-07-29T08:13:51.218Z,15.37
2022-07-29T08:16:20.040Z,16.13
2022-07-29T08:18:49.073Z,16.47
2022-07-29T08:21:17.760Z,17.33
2022-07-29T08:23:57.614Z,18.13
2022-07-29T08:26:28.825Z,17.20
2022-07-29T08:28:57.524Z,16.77
2022-07-29T08:31:26.132Z,16.70
2022-07-29T08:33:54.889Z,18.00
2022-07-29T08:36:23.541Z,17.50
2022-07-29T08:38:52.205Z,17.77
2022-07-29T08:41:21.351Z,18.33
2022-07-29T08:43:52.025Z,18.03
2022-07-29T08:46:21.527Z,16.60
2022-07-29T08:48:50.835Z,18.07
2022-07-29T08:51:21.546Z,17.60
2022-07-29T08:53:51.803Z,17.27
2022-07-29T08:56:22.493Z,17.20
2022-07-29T08:58:52.766Z,17.30
2022-07-29T09:01:35.972Z,17.73
2022-07-29T09:04:14.010Z,18.50
2022-07-29T09:06:46.950Z,18.67
2022-07-29T09:09:15.812Z,18.17
2022-07-29T09:11:44.918Z,19.00
2022-07-29T09:14:16.389Z,20.07
2022-07-29T09:16:54.259Z,17.60
2022-07-29T09:19:26.034Z,17.60
2022-07-29T09:22:03.073Z,19.10
2022-07-29T09:24:41.724Z,18.90
2022-07-29T09:27:21.750Z,18.90
2022-07-29T09:29:58.380Z,18.53
2022-07-29T09:32:28.462Z,17.57
2022-07-29T09:35:23.062Z,17.77
2022-07-29T09:37:52.476Z,17.37
2022-07-29T09:40:23.360Z,20.10
2022-07-29T09:42:53.899Z,17.83
2022-07-29T09:45:32.338Z,20.07
2022-07-29T09:48:04.356Z,19.50
2022-07-29T09:50:40.108Z,18.73
2022-07-29T09:53:10.474Z,20.40
2022-07-29T09:55:52.094Z,19.53
2022-07-29T09:58:22.652Z,19.37
2022-07-29T10:00:53.883Z,20.40
2022-07-29T10:03:22.865Z,20.27
2022-07-29T10:06:07.614Z,19.60
2022-07-29T10:08:37.501Z,18.87
2022-07-29T10:11:16.752Z,20.60
2022-07-29T10:13:47.173Z,20.93
2022-07-29T10:16:18.874Z,20.13
2022-07-29T10:18:48.334Z,19.00
2022-07-29T10:21:35.162Z,19.33
2022-07-29T10:24:06.084Z,21.77
2022-07-29T10:26:35.292Z,19.63
2022-07-29T10:29:04.438Z,20.83
2022-07-29T10:31:44.158Z,19.73
2022-07-29T10:34:22.935Z,20.33
2022-07-29T10:36:58.920Z,19.30
2022-07-29T10:39:44.507Z,19.23
2022-07-29T10:42:20.389Z,19.90
2022-07-29T10:45:03.023Z,20.33
2022-07-29T10:47:35.346Z,20.07
2022-07-29T10:50:06.315Z,20.20
2022-07-29T10:52:59.512Z,20.63
2022-07-29T10:55:37.516Z,21.47
2022-07-29T10:58:18.100Z,22.47
2022-07-29T11:00:49.478Z,20.73
2022-07-29T11:03:49.804Z,19.87
2022-07-29T11:06:28.025Z,20.83
2022-07-29T11:09:20.317Z,23.57
2022-07-29T11:11:54.915Z,22.67
2022-07-29T11:15:00.314Z,19.83
2022-07-29T11:17:47.160Z,22.03
2022-07-29T11:20:38.940Z,21.30
2022-07-29T11:23:27.462Z,24.67
2022-07-29T11:26:21.128Z,21.93
2022-07-29T11:29:01.677Z,20.17
2022-07-29T11:31:39.976Z,21.67
2022-07-29T11:34:22.673Z,22.87
2022-07-29T11:37:18.419Z,21.23
2022-07-29T11:40:09.955Z,22.27
2022-07-29T11:42:57.115Z,21.83
2022-07-29T11:45:43.218Z,22.30
2022-07-29T11:48:29.167Z,22.13
2022-07-29T11:51:01.093Z,21.43
2022-07-29T11:53:32.803Z,20.97
2022-07-29T11:56:03.432Z,22.73
2022-07-29T11:58:33.730Z,21.70
2022-07-29T12:01:04.748Z,20.90
2022-07-29T12:06:24.196Z,20.50
2022-07-29T12:08:54.519Z,20.70
2022-07-29T12:11:23.794Z,20.57
2022-07-29T12:13:53.272Z,22.63
2022-07-29T12:16:25.819Z,20.73
2022-07-29T12:19:02.957Z,21.97
2022-07-29T12:21:45.742Z,21.20
2022-07-29T12:24:27.065Z,19.93
2022-07-29T12:26:57.606Z,20.80
2022-07-29T12:29:35.237Z,20.87
2022-07-29T12:32:14.721Z,21.73
2022-07-29T12:34:48.433Z,19.83
2022-07-29T12:37:17.223Z,21.27
2022-07-29T12:39:47.499Z,21.43
2022-07-29T12:42:18.694Z,24.50
2022-07-29T12:44:49.103Z,22.30
2022-07-29T12:47:19.179Z,21.77
2022-07-29T12:49:49.581Z,20.27
2022-07-29T12:52:32.610Z,22.57
2022-07-29T12:55:03.023Z,22.20
2022-07-29T12:57:32.976Z,22.70
2022-07-29T13:00:08.683Z,23.90
2022-07-29T13:02:37.764Z,21.97
2022-07-29T13:05:09.163Z,22.40
2022-07-29T13:07:55.221Z,21.63
2022-07-29T13:10:27.613Z,21.37
2022-07-29T13:13:10.713Z,20.83
2022-07-29T13:15:40.359Z,23.03
2022-07-29T13:18:29.323Z,21.80
2022-07-29T13:20:58.547Z,22.27
2022-07-29T13:23:27.369Z,22.20
2022-07-29T13:26:07.778Z,23.03
2022-07-29T13:28:36.619Z,23.80
2022-07-29T13:31:06.065Z,23.67
2022-07-29T13:33:34.875Z,23.37
2022-07-29T13:36:03.498Z,24.93
2022-07-29T13:38:32.173Z,24.87
2022-07-29T13:41:03.143Z,22.20
2022-07-29T13:43:31.911Z,22.70
2022-07-29T13:46:00.585Z,23.73
2022-07-29T13:48:29.302Z,23.43
2022-07-29T13:50:58.927Z,24.30
2022-07-29T13:53:28.836Z,23.53
2022-07-29T13:55:57.803Z,23.63
2022-07-29T13:58:27.833Z,24.13
2022-07-29T14:00:57.930Z,23.13
2022-07-29T14:03:27.050Z,22.30
2022-07-29T14:05:57.154Z,22.33
2022-07-29T14:08:25.893Z,24.43
2022-07-29T14:10:54.798Z,22.33
2022-07-29T14:13:25.618Z,22.50
2022-07-29T14:15:57.128Z,23.17
2022-07-29T14:18:25.847Z,23.00
2022-07-29T14:20:54.626Z,23.10
2022-07-29T14:23:23.354Z,23.77
2022-07-29T14:25:51.952Z,23.10
2022-07-29T14:28:22.096Z,22.90
2022-07-29T14:30:50.729Z,24.60
2022-07-29T14:33:20.747Z,23.10
2022-07-29T14:35:49.393Z,23.93
2022-07-29T14:38:18.019Z,22.43
2022-07-29T14:40:47.557Z,24.70
2022-07-29T14:43:19.733Z,26.43
2022-07-29T14:45:50.616Z,23.53
2022-07-29T14:48:20.747Z,22.57
2022-07-29T14:50:49.300Z,23.73
2022-07-29T14:53:17.893Z,25.57
2022-07-29T14:55:46.719Z,23.50
2022-07-29T14:58:16.701Z,25.23
2022-07-29T15:00:45.876Z,25.07
2022-07-29T15:03:23.930Z,25.47
2022-07-29T15:05:54.539Z,23.10
2022-07-29T15:08:23.313Z,24.07
2022-07-29T15:10:51.930Z,23.17
2022-07-29T15:13:20.570Z,25.03
2022-07-29T15:15:57.046Z,23.17
2022-07-29T15:18:28.660Z,23.07
2022-07-29T15:20:58.928Z,23.33
2022-07-29T15:23:27.583Z,23.60
2022-07-29T15:25:56.218Z,24.93
2022-07-29T15:28:24.924Z,23.50
2022-07-29T15:30:53.918Z,23.97
2022-07-29T15:33:22.542Z,23.60
2022-07-29T15:35:51.280Z,22.67
2022-07-29T15:38:28.578Z,24.30
2022-07-29T15:40:57.950Z,24.27
2022-07-29T15:43:27.199Z,23.33
2022-07-29T15:46:13.332Z,23.63
2022-07-29T15:48:42.037Z,23.07
2022-07-29T15:51:10.651Z,25.37
2022-07-29T15:53:40.640Z,24.00
2022-07-29T15:56:09.270Z,24.70
2022-07-29T15:58:37.844Z,23.73
2022-07-29T16:01:06.688Z,24.57
2022-07-29T16:03:35.379Z,23.80
2022-07-29T16:06:04.220Z,24.23
2022-07-29T16:08:32.819Z,22.43
2022-07-29T16:11:02.765Z,23.37
2022-07-29T16:13:31.384Z,24.17
2022-07-29T16:16:01.927Z,23.80
2022-07-29T16:18:31.802Z,23.97
2022-07-29T16:21:00.839Z,23.67
2022-07-29T16:23:29.523Z,23.67
2022-07-29T16:26:00.117Z,22.67
2022-07-29T16:28:31.450Z,23.73
2022-07-29T16:31:00.205Z,22.83
2022-07-29T16:33:55.118Z,23.60
2022-07-29T16:36:18.537Z,23.23
2022-07-29T16:38:47.651Z,23.23
2022-07-29T16:41:16.493Z,24.70
2022-07-29T16:43:46.786Z,22.60
2022-07-29T16:46:18.471Z,25.03
2022-07-29T16:48:47.898Z,22.90
2022-07-29T16:51:17.298Z,24.73
2022-07-29T16:53:45.975Z,22.23
2022-07-29T16:56:18.366Z,24.20
2022-07-29T16:58:48.431Z,21.90
2022-07-29T17:01:17.922Z,22.63
2022-07-29T17:04:04.742Z,22.00
2022-07-29T17:06:35.092Z,23.73
2022-07-29T17:09:04.804Z,22.57
2022-07-29T17:11:52.554Z,22.60
2022-07-29T17:14:25.800Z,21.87
2022-07-29T17:17:01.167Z,21.43
2022-07-29T17:19:31.785Z,22.13
2022-07-29T17:22:09.498Z,22.20
2022-07-29T17:24:41.103Z,22.23
2022-07-29T17:27:10.429Z,23.63
2022-07-29T17:29:40.753Z,22.53
2022-07-29T17:32:10.334Z,23.80
2022-07-29T17:34:39.618Z,21.53
2022-07-29T17:37:09.551Z,22.13
2022-07-29T17:39:40.767Z,23.27
2022-07-29T17:42:10.405Z,22.93
2022-07-29T17:44:40.919Z,21.60
2022-07-29T17:47:16.148Z,24.03
2022-07-29T17:49:45.908Z,23.27
2022-07-29T17:52:15.895Z,24.00
2022-07-29T17:54:44.515Z,21.20
2022-07-29T17:57:13.272Z,23.27
2022-07-29T17:59:43.674Z,22.60
2022-07-29T18:02:14.478Z,24.80
2022-07-29T18:04:43.225Z,21.17
2022-07-29T18:07:11.934Z,22.80
2022-07-29T18:09:40.562Z,21.43
2022-07-29T18:12:10.287Z,22.93
2022-07-29T18:14:39.445Z,23.37
2022-07-29T18:17:09.465Z,22.00
2022-07-29T18:19:38.063Z,22.40
2022-07-29T18:22:07.509Z,23.33
2022-07-29T18:24:36.136Z,20.60
2022-07-29T18:27:04.777Z,22.33
2022-07-29T18:29:33.992Z,20.73
2022-07-29T18:32:02.752Z,22.70
2022-07-29T18:34:33.212Z,22.47
2022-07-29T18:37:02.015Z,20.77
2022-07-29T18:39:30.903Z,21.73
2022-07-29T18:41:59.625Z,21.27
2022-07-29T18:44:28.446Z,19.47
2022-07-29T18:47:00.190Z,21.03
2022-07-29T18:49:29.417Z,20.33
2022-07-29T18:51:59.641Z,20.57
2022-07-29T18:54:28.330Z,20.70
2022-07-29T18:56:57.232Z,21.30
2022-07-29T18:59:26.141Z,20.33
2022-07-29T19:01:54.851Z,20.13
2022-07-29T19:04:23.801Z,21.63
2022-07-29T19:06:52.456Z,20.23
2022-07-29T19:09:22.571Z,20.60
2022-07-29T19:11:55.582Z,20.50
2022-07-29T19:14:24.928Z,19.70
2022-07-29T19:16:53.636Z,18.57
2022-07-29T19:19:22.275Z,22.50
2022-07-29T19:21:51.191Z,19.07
2022-07-29T19:24:19.808Z,19.93
2022-07-29T19:26:49.927Z,19.60
2022-07-29T19:29:18.751Z,20.87
2022-07-29T19:31:47.557Z,21.20
2022-07-29T19:34:16.109Z,21.60
2022-07-29T19:36:44.780Z,20.23
2022-07-29T19:39:15.476Z,19.57
2022-07-29T19:41:44.202Z,18.63
2022-07-29T19:44:15.511Z,19.63
2022-07-29T19:46:45.428Z,19.80
2022-07-29T19:49:14.639Z,18.23
2022-07-29T19:51:43.387Z,19.20
2022-07-29T19:54:12.039Z,19.87
2022-07-29T19:56:42.227Z,19.73
2022-07-29T19:59:11.064Z,19.30
2022-07-29T20:01:42.340Z,19.67
2022-07-29T20:04:10.963Z,20.90
2022-07-29T20:06:39.513Z,20.00
2022-07-29T20:09:08.104Z,18.93
2022-07-29T20:11:45.737Z,19.60
2022-07-29T20:14:14.304Z,19.30
2022-07-29T20:16:44.304Z,19.50
2022-07-29T20:19:13.003Z,19.33
2022-07-29T20:21:41.668Z,19.47
2022-07-29T20:24:10.593Z,19.37
2022-07-29T20:26:39.467Z,18.23
2022-07-29T20:29:08.069Z,18.10
2022-07-29T20:31:37.060Z,18.13
2022-07-29T20:34:07.177Z,21.97
2022-07-29T20:36:35.741Z,19.40
2022-07-29T20:39:04.402Z,18.10
2022-07-29T20:41:34.190Z,18.50
2022-07-29T20:44:03.178Z,18.80
2022-07-29T20:46:31.838Z,19.50
2022-07-29T20:49:00.609Z,18.03
2022-07-29T20:51:30.757Z,18.90
2022-07-29T20:54:02.722Z,19.23
2022-07-29T20:56:31.275Z,18.60
2022-07-29T20:58:59.898Z,19.87
2022-07-29T21:01:28.589Z,19.70
2022-07-29T21:03:57.457Z,17.90
2022-07-29T21:06:26.209Z,19.23
2022-07-29T21:08:57.958Z,17.17
2022-07-29T21:11:43.228Z,19.27
2022-07-29T21:14:21.837Z,19.43
2022-07-29T21:16:50.699Z,17.70
2022-07-29T21:19:19.274Z,18.13
2022-07-29T21:21:47.914Z,19.07
2022-07-29T21:24:17.948Z,19.17
2022-07-29T21:26:54.589Z,18.43
2022-07-29T21:29:27.230Z,18.37
2022-07-29T21:31:55.926Z,18.73
2022-07-29T21:34:24.698Z,19.67
2022-07-29T21:36:53.326Z,18.97
2022-07-29T21:39:23.404Z,17.97
2022-07-29T21:41:52.057Z,17.33
2022-07-29T21:44:21.883Z,16.70
2022-07-29T21:46:50.679Z,18.40
2022-07-29T21:49:20.336Z,18.50
2022-07-29T21:51:49.088Z,17.67
2022-07-29T21:54:19.443Z,17.30
2022-07-29T21:56:51.452Z,17.73
2022-07-29T21:59:20.030Z,19.47
2022-07-29T22:01:48.719Z,17.50
2022-07-29T22:04:17.598Z,19.27
2022-07-29T22:06:46.273Z,18.27
2022-07-29T22:09:14.805Z,18.37
2022-07-29T22:11:43.662Z,17.60
2022-07-29T22:14:15.009Z,19.13
2022-07-29T22:16:43.633Z,18.33
2022-07-29T22:19:12.337Z,17.27
2022-07-29T22:21:41.903Z,18.90
2022-07-29T22:24:11.272Z,19.67
2022-07-29T22:26:39.937Z,19.10
2022-07-29T22:29:08.505Z,18.57
2022-07-29T22:31:38.667Z,17.57
2022-07-29T22:34:12.634Z,18.53
2022-07-29T22:36:41.613Z,18.27
2022-07-29T22:39:10.247Z,18.57
2022-07-29T22:41:38.793Z,18.07
2022-07-29T22:44:07.372Z,19.13
2022-07-29T22:46:36.103Z,18.73
2022-07-29T22:49:06.361Z,17.93
2022-07-29T22:51:35.632Z,20.17
2022-07-29T22:54:05.243Z,18.00
2022-07-29T22:56:33.875Z,18.03
2022-07-29T22:59:02.479Z,19.73
2022-07-29T23:01:35.800Z,16.83
2022-07-29T23:04:08.377Z,20.53
2022-07-29T23:06:37.068Z,20.37
2022-07-29T23:09:06.308Z,20.33
2022-07-29T23:11:34.934Z,18.93
2022-07-29T23:14:03.586Z,19.53
2022-07-29T23:16:32.221Z,18.33
2022-07-29T23:19:01.585Z,19.43
2022-07-29T23:21:31.693Z,19.83
2022-07-29T23:24:00.343Z,19.20
2022-07-29T23:26:29.117Z,18.97
2022-07-29T23:28:57.866Z,17.70
2022-07-29T23:31:26.381Z,19.10
2022-07-29T23:33:55.045Z,18.80
2022-07-29T23:36:23.566Z,19.97
2022-07-29T23:38:54.988Z,18.83
2022-07-29T23:41:23.814Z,18.37
2022-07-29T23:43:52.394Z,18.03
2022-07-29T23:46:23.845Z,19.53
2022-07-29T23:48:52.814Z,18.53
2022-07-29T23:51:21.493Z,18.83
2022-07-29T23:53:54.031Z,17.87
2022-07-29T23:56:24.804Z,20.30
2022-07-29T23:58:54.381Z,18.30
